< < Back
Terminal Aerodrome Forecast


Current Version              Previous Versions:   1  2  3  4  5  6  7  8  9  

Terminal Aerodrome Forecast

045
FTUS42 KFFC 222300
TAFPDK
TAF
KPDK 222328Z 2300/2324 00000KT P6SM FEW250
     FM231500 32005KT P6SM FEW035
     FM231700 31006KT P6SM SCT045 PROB30 2318/2322 -TSRA BKN035CB=



Latest METAR

590
SAUS70 KWBC 230900 RRI
MTRPDK
METAR KPDK 230853Z AUTO 00000KT 8SM CLR 23/21 A3000 RMK AO2 SLP137
T02280211 56010 TSNO


USA.gov is the U.S. government's official web portal to all federal, state and local government web resources and services.